KELN/ELN METAR and TAF weather

Enter ICAO airport designator
Station Type Date Time Source
KELN METAR 2018/04/21 10:53 UTC NOAA

KELN 211053Z AUTO 31014KT 10SM FEW085 BKN110 08/02 A3012 RMK AO2 PK WND 32026/0956 SLP199 T00780017


Station Type Date Time Source
KELN Decoded METAR 2018/04/21 10:53 UTC NOAA

ELLENSBURG BOWERS FIELD, WA, United States (KELN) 47-02N 120-32W 519M
Apr 21, 2018 - 06:53 AM EDT / 2018.04.21 1053 UTC
Wind: from the NW (310 degrees) at 16 MPH (14 KT):0
Visibility: 10 mile(s):0
Sky conditions: mostly cloudy
Temperature: 46.0 F (7.8 C)
Dew Point: 35.1 F (1.7 C)
Relative Humidity: 65%
Pressure (altimeter): 30.12 in. Hg (1019 hPa)
ob: KELN 211053Z AUTO 31014KT 10SM FEW085 BKN110 08/02 A3012 RMK AO2 PK WND 32026/0956 SLP199 T00780017
cycle: 11

Station Type Date Time Source
KELN TAF UTC NOAA

Error!


Example: see airport list